Terminal Aerodrome Forecast
Issued by NWS

Home | Current Version | Previous Version | Text Only | Print | Product List | Glossary On
Versions: 1 2 3 4 5 6 7 8 9 10 11 12 13 14 15 16 17 18 19 20 21 22 23 24 25 26
000
FTPA31 PHFO 271100
TAFKOA
TAF
PHKO 271137Z 2712/2812 34010KT P6SM SCT015 BKN050
      TEMPO 2712/2715 BKN015
     FM272000 26010KT P6SM SCT050
     FM280200 20010KT P6SM BKN050
     FM280600 15008KT P6SM BKN050
     FM280800 10008KT P6SM SCT050=

USA.gov is the U.S. government's official web portal to all federal, state and local government web resources and services.